Time;durP1;ratioP1;P1;durP2;ratioP2;P2;SDS_P1;SDS_P2;PMS_P1;PMS_P2;Temp;Humidity;BMP_temperature;BMP_pressure;BME280_temperature;BME280_humidity;BME280_pressure;Samples;Min_cycle;Max_cycle;Signal;HPM_P1;HPM_P2
2024/01/21 00:00:50;;;;;;;4.40;1.23;;;;;;;-144.05;31.82;57088.84;5093457;28;20023;-77
2024/01/21 00:03:16;;;;;;;2.22;0.90;;;;;;;-144.05;32.35;57084.59;5094135;28;20465;-78
2024/01/21 00:05:42;;;;;;;2.05;0.93;;;;;;;-144.05;31.98;57086.72;5095283;28;20036;-76
2024/01/21 00:08:08;;;;;;;2.17;0.98;;;;;;;-144.05;32.45;57116.47;5094787;28;20063;-79
2024/01/21 00:10:35;;;;;;;3.83;1.60;;;;;;;-144.05;32.52;57084.59;5094540;28;21429;-77
2024/01/21 00:13:01;;;;;;;2.00;0.80;;;;;;;-144.05;32.59;57093.09;5096421;28;20039;-78
2024/01/21 00:15:27;;;;;;;1.75;1.10;;;;;;;-144.05;31.93;57093.09;5099608;27;20036;-77
2024/01/21 00:17:54;;;;;;;2.33;1.08;;;;;;;-144.05;31.80;57076.09;5094926;28;20044;-79
2024/01/21 00:20:21;;;;;;;3.05;1.08;;;;;;;-144.05;31.74;57082.47;5095127;28;20034;-78
2024/01/21 00:22:47;;;;;;;3.35;1.30;;;;;;;-144.05;31.51;57082.47;5094968;28;20024;-77
2024/01/21 00:25:13;;;;;;;1.45;0.60;;;;;;;-144.05;31.13;57086.72;5094240;28;20101;-78
2024/01/21 00:27:39;;;;;;;4.05;1.63;;;;;;;-144.05;31.48;57052.75;5094262;28;20027;-77
2024/01/21 00:30:06;;;;;;;2.10;1.23;;;;;;;-144.05;31.25;57044.25;5095208;28;20039;-78
2024/01/21 00:32:33;;;;;;;3.03;1.48;;;;;;;-144.05;31.30;57090.97;5098761;28;20412;-76
2024/01/21 00:34:59;;;;;;;2.30;1.30;;;;;;;-144.05;31.11;57082.47;5102598;28;20480;-78
2024/01/21 00:37:25;;;;;;;3.17;1.30;;;;;;;-144.05;31.09;57065.47;5099534;28;20041;-79
2024/01/21 00:39:51;;;;;;;2.75;1.33;;;;;;;-144.05;30.19;57086.72;5099626;28;20054;-77
2024/01/21 00:42:18;;;;;;;1.48;1.08;;;;;;;-144.05;30.29;57105.84;5104553;28;20031;-77
2024/01/21 00:44:44;;;;;;;1.92;1.00;;;;;;;-144.05;30.38;57086.72;5095604;28;20032;-76
2024/01/21 00:47:10;;;;;;;2.05;1.10;;;;;;;-144.05;30.63;57071.84;5102961;28;20024;-77
2024/01/21 00:49:39;;;;;;;2.72;1.33;;;0.00;74.50;;;-144.05;30.26;57078.22;5101831;28;20028;-77
2024/01/21 00:52:06;;;;;;;5.78;1.58;;;;;;;-144.05;30.31;57090.97;5100581;28;20421;-79
2024/01/21 00:54:32;;;;;;;1.63;0.90;;;;;;;-144.05;29.63;57082.47;5107823;28;20106;-78
2024/01/21 00:56:58;;;;;;;3.60;1.45;;;;;;;-144.05;29.92;57090.97;5096994;28;20020;-76
2024/01/21 00:59:25;;;;;;;2.95;1.30;;;;;;;-144.05;29.92;57076.09;5093606;28;20036;-77
2024/01/21 01:01:51;;;;;;;1.70;1.00;;;;;;;-144.05;30.40;57071.84;5092187;28;20073;-77
2024/01/21 01:04:17;;;;;;;2.10;1.20;;;;;;;-144.05;30.07;57073.97;5096534;28;20067;-76
2024/01/21 01:06:43;;;;;;;2.17;1.15;;;;;;;-144.05;30.49;57086.72;5093690;28;20043;-75
2024/01/21 01:09:09;;;;;;;2.25;1.20;;;;;;;-144.05;30.55;57069.72;5093108;28;20138;-75
2024/01/21 01:11:37;;;;;;;3.15;1.23;;;;;;;-144.05;30.82;57082.47;5092470;28;20051;-77
2024/01/21 01:14:03;;;;;;;1.80;1.15;;;;;;;-144.05;30.49;57088.84;5094492;28;20028;-76
2024/01/21 01:16:30;;;;;;;2.47;1.20;;;;;;;-144.05;30.23;57112.22;5112185;27;20373;-76
2024/01/21 01:18:56;;;;;;;7.05;1.65;;;;;;;-144.05;30.68;57086.72;5092673;28;20411;-78
2024/01/21 01:21:22;;;;;;;3.70;1.60;;;;;;;-144.05;30.88;57071.84;5093524;28;20384;-76
2024/01/21 01:23:48;;;;;;;3.22;1.55;;;;;;;-144.05;30.89;57086.72;5092483;28;20020;-76
2024/01/21 01:26:15;;;;;;;2.75;1.42;;;;;;;-144.05;31.17;57069.72;5093587;28;20024;-74
2024/01/21 01:28:41;;;;;;;3.70;1.70;;;;;;;-144.05;30.83;57069.72;5095786;28;20020;-77
2024/01/21 01:31:07;;;;;;;3.00;1.40;;;;;;;-144.05;31.13;57069.72;5091740;28;20032;-75
2024/01/21 01:33:33;;;;;;;3.60;1.80;;;;;;;-144.05;30.96;57025.13;5092264;28;20497;-77
2024/01/21 01:35:59;;;;;;;2.83;1.50;;;;;;;-144.05;31.30;57052.75;5093100;28;20035;-74
2024/01/21 01:38:26;;;;;;;2.17;1.20;;;;;;;-144.05;31.67;57046.38;5092973;28;20024;-77
2024/01/21 01:40:52;;;;;;;3.95;1.77;;;;;;;-144.05;31.82;57107.97;5093026;28;20064;-77
2024/01/21 01:43:18;;;;;;;2.58;1.50;;;;;;;-144.05;31.72;57056.97;5093046;28;20049;-78
2024/01/21 01:45:45;;;;;;;2.90;1.60;;;;;;;-144.05;31.86;57065.47;5098711;28;20562;-77
2024/01/21 01:48:11;;;;;;;3.05;1.58;;;;;;;-144.05;31.44;57086.72;5100666;28;20105;-78
2024/01/21 01:50:37;;;;;;;2.20;1.52;;;;;;;-144.05;31.30;57093.09;5091832;28;20035;-77
2024/01/21 01:53:03;;;;;;;2.28;1.70;;;;;;;-144.05;31.68;57056.97;5093058;28;20028;-77
2024/01/21 01:55:31;;;;;;;2.92;1.77;;;;;;;-144.05;31.23;57082.47;5091879;28;20035;-78
2024/01/21 01:57:57;;;;;;;3.38;1.50;;;;;;;-144.05;31.00;57095.22;5095646;28;20028;-78
2024/01/21 02:00:24;;;;;;;3.30;1.80;;;;;;;-144.05;30.65;57040.00;5093684;28;20020;-76
2024/01/21 02:02:52;;;;;;;3.63;1.92;;;;;;;-144.05;31.03;57052.75;5093964;28;20028;-77
2024/01/21 02:05:18;;;;;;;3.45;1.75;;;;;;;-144.05;30.61;57033.63;5092437;28;20062;-76
2024/01/21 02:07:44;;;;;;;5.25;1.73;;;;;;;-144.05;30.37;57086.72;5091905;28;20028;-77
2024/01/21 02:10:11;;;;;;;3.05;1.90;;;;;;;-144.05;30.45;57069.72;5093628;28;20091;-76
2024/01/21 02:12:44;;;;;;;2.53;1.48;;;4.60;75.10;;;-144.05;30.05;57082.47;5093013;28;20067;-79
2024/01/21 02:15:14;;;;;;;2.33;1.45;;;;;;;-144.05;30.82;57054.88;5097386;28;20559;-78
2024/01/21 02:17:41;;;;;;;3.55;1.80;;;;;;;-144.05;30.04;57090.97;5091283;28;20024;-77
2024/01/21 02:20:07;;;;;;;3.20;1.70;;;;;;;-144.05;30.40;57054.88;5098210;28;20035;-76
2024/01/21 02:22:42;;;;;;;3.92;2.30;;;;;;;-144.05;30.38;57082.47;5091903;28;20050;-76
2024/01/21 02:25:09;;;;;;;2.97;1.85;;;;;;;-144.05;30.18;57063.34;5102953;28;20024;-77
2024/01/21 02:27:40;;;;;;;2.58;1.55;;;;;;;-144.05;30.14;57048.50;5105811;28;20027;-78
2024/01/21 02:30:07;;;;;;;2.55;1.48;;;;;;;-144.05;30.11;57054.88;5102929;28;20077;-76
2024/01/21 02:32:33;;;;;;;2.08;1.40;;;;;;;-144.05;30.25;57052.75;5096421;28;20073;-76
2024/01/21 02:34:59;;;;;;;2.30;1.40;;;;;;;-144.05;30.02;57078.22;5096423;28;20024;-77
2024/01/21 02:37:26;;;;;;;3.15;1.63;;;;;;;-144.05;29.52;57099.47;5095802;28;20028;-76
2024/01/21 02:39:52;;;;;;;3.78;1.90;;;;;;;-144.05;29.82;57063.34;5095733;28;20115;-78
2024/01/21 02:42:18;;;;;;;3.78;1.70;;;;;;;-144.05;29.59;57063.34;5096328;28;20028;-78
2024/01/21 02:44:44;;;;;;;2.35;1.40;;;;;;;-144.05;29.53;57061.22;5096192;28;20427;-77
2024/01/21 02:47:11;;;;;;;2.95;1.50;;;;;;;-144.05;29.41;57069.72;5095543;28;20028;-78
2024/01/21 02:49:37;;;;;;;3.25;1.70;;;;;;;-144.05;29.38;57059.09;5094962;28;20062;-76
2024/01/21 02:52:03;;;;;;;3.65;1.70;;;;;;;-144.05;29.58;57061.22;5095761;28;20024;-77
2024/01/21 02:54:30;;;;;;;3.80;1.50;;;;;;;-144.05;30.02;57076.09;5096153;28;20024;-77
2024/01/21 02:56:56;;;;;;;4.38;2.05;;;;;;;-144.05;29.56;57048.50;5096341;28;20024;-76
2024/01/21 02:59:22;;;;;;;3.88;2.08;;;;;;;-144.05;30.29;57059.09;5096350;28;20387;-76
2024/01/21 03:01:48;;;;;;;3.13;1.60;;;;;;;-144.05;29.77;57067.59;5094486;28;20101;-75
2024/01/21 03:04:14;;;;;;;3.47;1.60;;;;;;;-144.05;29.69;57059.09;5096076;28;20028;-78
2024/01/21 03:06:42;;;;;;;2.30;1.40;;;;;;;-144.05;30.28;57063.34;5096933;28;20032;-76
2024/01/21 03:09:08;;;;;;;3.22;1.63;;;;;;;-144.05;29.19;57042.13;5096567;28;20052;-76
2024/01/21 03:11:39;;;;;;;3.33;1.88;;;;;;;-144.05;29.82;57063.34;5100138;28;20028;-77
2024/01/21 03:14:07;;;;;;;3.70;1.67;;;;;;;-144.05;29.79;57093.09;5097421;28;20024;-76
2024/01/21 03:16:33;;;;;;;2.83;1.80;;;;;;;-144.05;29.88;57042.13;5097871;28;20035;-78
2024/01/21 03:18:59;;;;;;;3.47;1.80;;;;;;;-144.05;30.30;57044.25;5096900;28;20084;-76
2024/01/21 03:21:25;;;;;;;3.03;1.73;;;;;;;-144.05;30.21;57082.47;5098165;28;20403;-76
2024/01/21 03:23:52;;;;;;;2.15;1.50;;;;;;;-144.05;29.91;57046.38;5093946;28;20032;-76
2024/01/21 03:26:18;;;;;;;4.28;1.88;;;;;;;-144.05;29.75;57065.47;5096103;28;20512;-77
2024/01/21 03:28:44;;;;;;;3.15;1.52;;;;;;;-144.05;29.94;57048.50;5117546;28;20055;-76
2024/01/21 03:31:10;;;;;;;4.18;2.65;;;;;;;-144.05;30.04;57082.47;5095167;28;20032;-76
2024/01/21 03:33:37;;;;;;;4.47;2.17;;;;;;;-144.05;30.70;57071.84;5111274;28;20024;-77
2024/01/21 03:36:04;;;;;;;3.92;2.03;;;;;;;-144.05;31.25;57078.22;5108356;28;20039;-77
2024/01/21 03:38:30;;;;;;;2.90;1.95;;;;;;;-144.05;30.66;57042.13;5095408;28;20103;-76
2024/01/21 03:40:56;;;;;;;2.63;1.70;;;;;;;-144.05;30.76;57048.50;5094739;28;20400;-77
2024/01/21 03:43:22;;;;;;;2.45;1.92;;;;;;;-144.05;31.07;57067.59;5094608;28;20028;-76
2024/01/21 03:45:48;;;;;;;3.63;1.88;;;;;;;-144.05;30.91;57065.47;5092920;28;20024;-76
2024/01/21 03:48:15;;;;;;;3.40;1.70;;;;;;;-144.05;31.17;57056.97;5095229;28;20032;-76
2024/01/21 03:50:41;;;;;;;5.70;1.83;;;;;;;-144.05;31.02;57069.72;5101026;28;20028;-78
2024/01/21 03:53:07;;;;;;;3.38;1.98;;;;;;;-144.05;31.06;57048.50;5094617;28;20131;-76
2024/01/21 03:55:33;;;;;;;3.55;2.28;;;;;;;-144.05;30.91;57054.88;5094892;28;20027;-76
2024/01/21 03:58:00;;;;;;;5.63;2.17;;;;;;;-144.05;30.63;57071.84;5094367;28;20028;-76
2024/01/21 04:00:26;;;;;;;3.53;1.70;;;;;;;-144.05;30.80;57101.59;5094684;28;20023;-79
2024/01/21 04:02:52;;;;;;;4.00;2.03;;;;;;;-144.05;30.40;57054.88;5096439;28;20099;-78
2024/01/21 04:05:18;;;;;;;3.53;2.58;;;;;;;-144.05;30.94;57076.09;5095526;28;20059;-78
2024/01/21 04:07:45;;;;;;;2.65;1.83;;;;;;;-144.05;30.25;57076.09;5094449;28;20020;-77
2024/01/21 04:10:11;;;;;;;3.50;2.10;;;;;;;-144.05;30.29;57095.22;5094816;28;20063;-78
2024/01/21 04:12:38;;;;;;;3.40;2.08;;;;;;;-144.05;30.63;57069.72;5095833;28;20514;-78
2024/01/21 04:15:04;;;;;;;3.45;1.90;;;;;;;-144.05;30.25;57082.47;5101654;28;20398;-78
2024/01/21 04:17:31;;;;;;;3.42;2.00;;;;;;;-144.05;30.47;57048.50;5094622;28;20510;-77
2024/01/21 04:19:57;;;;;;;3.55;1.85;;;;;;;-144.05;30.63;57029.38;5101927;28;20500;-77
2024/01/21 04:22:23;;;;;;;3.25;1.85;;;;;;;-144.05;30.83;57078.22;5101032;28;20035;-79
2024/01/21 04:24:49;;;;;;;4.32;2.13;;;;;;;-144.05;30.75;57065.47;5098822;28;20024;-78
2024/01/21 04:27:16;;;;;;;4.22;2.33;;;;;;;-144.05;30.40;57095.22;5094618;28;20138;-78
2024/01/21 04:29:42;;;;;;;3.88;2.22;;;;;;;-144.05;30.72;57067.59;5095584;28;20132;-77
2024/01/21 04:32:08;;;;;;;4.53;2.20;;;;;;;-144.05;30.80;57097.34;5095493;28;20397;-76
2024/01/21 04:34:35;;;;;;;4.97;1.90;;;;;;;-144.05;30.80;57076.09;5096092;28;20035;-78
2024/01/21 04:37:01;;;;;;;4.80;1.83;;;;;;;-144.05;30.93;57052.75;5095156;28;20028;-78
2024/01/21 04:39:28;;;;;;;4.40;2.30;;;;;;;-144.05;31.48;57065.47;5101220;28;20525;-77
2024/01/21 04:41:54;;;;;;;3.05;2.13;;;;;;;-144.05;31.23;57073.97;5095953;28;20025;-78
2024/01/21 04:44:20;;;;;;;3.63;2.47;;;;;;;-144.05;30.85;57082.47;5100502;28;20055;-76
2024/01/21 04:46:46;;;;;;;2.72;2.05;;;;;;;-144.05;31.25;57061.22;5092542;28;20059;-77
2024/01/21 04:49:12;;;;;;;3.83;2.22;;;;;;;-144.05;31.41;57052.75;5094567;28;20036;-76
2024/01/21 04:51:39;;;;;;;4.68;2.53;;;;;;;-144.05;31.44;57046.38;5096040;28;20116;-76
2024/01/21 04:54:05;;;;;;;5.15;2.40;;;;;;;-144.05;31.76;57097.34;5093287;28;20028;-78
2024/01/21 04:56:31;;;;;;;3.45;2.10;;;;;;;-144.05;31.54;57084.59;5092117;28;20032;-79
2024/01/21 04:58:57;;;;;;;5.22;2.25;;;;;;;-144.05;31.77;57061.22;5093043;28;20465;-76
2024/01/21 05:01:24;;;;;;;5.13;2.47;;;;;;;-144.05;31.97;57071.84;5095946;28;20043;-77
2024/01/21 05:03:50;;;;;;;5.88;2.47;;;;;;;-144.05;32.05;57073.97;5093310;28;20110;-77
2024/01/21 05:06:18;;;;;;;7.85;2.92;;;;;;;-144.05;32.29;57065.47;5094956;28;20070;-76
2024/01/21 05:08:44;;;;;;;4.32;2.38;;;;;;;-144.05;32.26;57114.34;5093991;28;20107;-79
2024/01/21 05:11:14;;;;;;;4.85;2.33;;;0.40;75.40;;;-144.05;32.40;57069.72;5092902;28;20031;-78
2024/01/21 05:13:41;;;;;;;4.40;2.25;;;;;;;-144.05;32.31;57090.97;5093577;28;20036;-77
2024/01/21 05:16:07;;;;;;;3.65;2.10;;;;;;;-144.05;32.44;57097.34;5093424;28;20024;-77
2024/01/21 05:18:33;;;;;;;6.00;3.00;;;;;;;-144.05;32.52;57080.34;5093238;28;20039;-77
2024/01/21 05:20:59;;;;;;;4.03;2.60;;;;;;;-144.05;32.73;57118.59;5101536;28;20027;-78
2024/01/21 05:23:26;;;;;;;3.83;2.30;;;;;;;-144.05;31.94;57084.59;5101297;28;20062;-77
2024/01/21 05:25:54;;;;;;;3.63;2.30;;;;;;;-144.05;32.60;57076.09;5100317;28;20028;-77
2024/01/21 05:28:20;;;;;;;4.65;2.25;;;;;;;-144.05;33.01;57107.97;5094933;28;20028;-76
2024/01/21 05:30:46;;;;;;;4.80;2.45;;;;;;;-144.05;32.61;57088.84;5092637;28;20032;-78
2024/01/21 05:33:12;;;;;;;4.85;2.70;;;;;;;-144.05;32.27;57099.47;5093225;28;20032;-78
2024/01/21 05:35:39;;;;;;;5.15;2.15;;;;;;;-144.05;32.92;57080.34;5094811;28;20048;-78
2024/01/21 05:38:06;;;;;;;4.28;2.50;;;;;;;-144.05;32.85;57078.22;5094289;28;20028;-77
2024/01/21 05:40:33;;;;;;;6.22;3.20;;;;;;;-144.05;32.38;57061.22;5095161;28;20028;-79
2024/01/21 05:43:00;;;;;;;4.80;2.50;;;;;;;-144.05;32.74;57110.09;5092897;28;20103;-76
2024/01/21 05:45:27;;;;;;;5.40;2.85;;;;;;;-144.05;32.89;57105.84;5094033;28;20035;-78
2024/01/21 05:47:53;;;;;;;7.18;2.70;;;;;;;-144.05;32.70;57061.22;5094470;28;20096;-77
2024/01/21 05:50:19;;;;;;;6.60;3.03;;;;;;;-144.05;32.87;57086.72;5093745;28;20035;-76
2024/01/21 05:52:45;;;;;;;4.90;2.53;;;;;;;-144.05;32.96;57071.84;5093481;28;20130;-78
2024/01/21 05:55:12;;;;;;;8.10;2.95;;;;;;;-144.05;32.71;57097.34;5095209;28;20233;-78
2024/01/21 05:57:40;;;;;;;5.68;3.10;;;;;;;-144.05;33.28;57069.72;5099090;28;20049;-76
2024/01/21 06:00:07;;;;;;;5.45;2.65;;;;;;;-144.05;33.38;57099.47;5100480;28;20406;-77
2024/01/21 06:02:33;;;;;;;6.70;2.40;;;;;;;-144.05;33.33;57088.84;5101814;28;20031;-78
2024/01/21 06:04:59;;;;;;;5.28;2.92;;;;;;;-144.05;33.65;57065.47;5101681;28;20109;-77
2024/01/21 06:07:26;;;;;;;8.00;3.40;;;;;;;-144.05;33.84;57076.09;5099303;28;20028;-79
2024/01/21 06:09:52;;;;;;;6.65;3.38;;;;;;;-144.05;33.82;57099.47;5100000;28;20028;-77
2024/01/21 06:12:18;;;;;;;4.85;2.83;;;;;;;-144.05;33.96;57078.22;5099722;28;20427;-78
2024/01/21 06:14:46;;;;;;;5.95;3.05;;;;;;;-144.05;34.11;57099.47;5099346;28;20056;-79
2024/01/21 06:17:12;;;;;;;5.40;2.92;;;;;;;-144.05;34.03;57099.47;5096397;28;20039;-79
2024/01/21 06:19:38;;;;;;;6.38;3.17;;;;;;;-144.05;33.96;57107.97;5101221;28;20032;-77
2024/01/21 06:22:05;;;;;;;6.00;3.03;;;;;;;-144.05;33.95;57133.44;5098464;28;20027;-76
2024/01/21 06:24:35;;;;;;;5.82;3.38;;;;;;;-144.05;34.39;57099.47;5099079;28;20066;-78
2024/01/21 06:27:01;;;;;;;6.45;3.08;;;;;;;-144.05;34.71;57090.97;5111576;28;20028;-77
2024/01/21 06:29:27;;;;;;;4.85;3.20;;;;;;;-144.05;34.64;57069.72;5102378;28;20401;-78
2024/01/21 06:31:54;;;;;;;4.85;2.67;;;;;;;-144.05;34.83;57095.22;5096934;28;20377;-77
2024/01/21 06:34:20;;;;;;;5.85;3.13;;;;;;;-144.05;35.27;57071.84;5096994;28;20032;-77
2024/01/21 06:36:47;;;;;;;5.18;3.15;;;;;;;-144.05;35.02;57052.75;5096574;28;20070;-78
2024/01/21 06:39:13;;;;;;;6.57;3.40;;;;;;;-144.05;35.43;57067.59;5095515;28;20091;-77
2024/01/21 06:41:39;;;;;;;7.03;3.60;;;;;;;-144.05;35.43;57103.72;5095825;28;20031;-78
2024/01/21 06:44:05;;;;;;;7.63;3.20;;;;;;;-144.05;35.63;57093.09;5094927;28;20434;-78
2024/01/21 06:46:32;;;;;;;5.63;3.30;;;;;;;-144.05;36.02;57078.22;5095303;28;20059;-77
2024/01/21 06:48:58;;;;;;;6.50;3.33;;;;;;;-144.05;35.97;57105.84;5095049;28;20060;-80
2024/01/21 06:54:09;;;;;;;7.43;3.35;;;;;;;-144.05;35.94;57093.09;5101270;28;20161;-78
2024/01/21 06:56:35;;;;;;;7.35;3.38;;;;;;;-144.05;36.29;57050.63;5096776;28;20045;-78
2024/01/21 06:59:02;;;;;;;6.47;3.47;;;;;;;-144.05;36.27;57095.22;5097663;28;20020;-78
2024/01/21 07:01:28;;;;;;;7.43;3.47;;;;;;;-144.05;36.71;57084.59;5097987;28;20048;-78
2024/01/21 07:03:54;;;;;;;5.68;3.38;;;;;;;-144.05;36.16;57131.31;5097452;28;20639;-78
2024/01/21 07:06:21;;;;;;;8.05;3.72;;;;;;;-144.05;36.64;57082.47;5099782;28;20028;-78
2024/01/21 07:08:47;;;;;;;7.40;3.60;;;;;;;-144.05;37.09;57093.09;5098475;28;20047;-78
2024/01/21 07:11:14;;;;;;;6.90;3.75;;;;;;;-144.05;37.04;57084.59;5097109;28;20028;-77
2024/01/21 07:13:40;;;;;;;6.80;3.60;;;;;;;-144.05;37.35;57082.47;5106420;28;20097;-79
2024/01/21 07:16:06;;;;;;;8.65;3.88;;;;;;;-144.05;36.98;57065.47;5109499;28;20020;-78
2024/01/21 07:18:32;;;;;;;8.00;3.80;;;;;;;-144.05;37.67;57076.09;5111172;28;20071;-80
2024/01/21 07:20:59;;;;;;;7.97;4.00;;;;;;;-144.05;37.35;57071.84;5107716;28;20028;-79
2024/01/21 07:23:26;;;;;;;8.02;3.90;;;;;;;-144.05;37.54;57076.09;5118627;28;20047;-78
2024/01/21 07:25:52;;;;;;;6.90;3.30;;;;;;;-144.05;37.87;57107.97;5117286;28;20027;-79
2024/01/21 07:28:18;;;;;;;5.97;3.47;;;;;;;-144.05;37.58;57069.72;5093698;28;20038;-78
2024/01/21 07:30:45;;;;;;;7.25;4.25;;;;;;;-144.05;37.33;57065.47;5098241;28;20190;-80
2024/01/21 07:33:11;;;;;;;8.32;4.05;;;;;;;-144.05;37.41;57101.59;5098595;28;20028;-77
2024/01/21 07:35:37;;;;;;;6.90;4.35;;;;;;;-144.05;37.39;57103.72;5093245;28;20028;-79
2024/01/21 07:38:04;;;;;;;8.25;4.18;;;;;;;-144.05;38.12;57084.59;5094512;28;20069;-78
2024/01/21 07:40:31;;;;;;;7.70;4.10;;;;;;;-144.05;37.86;57076.09;5094073;28;20036;-78
2024/01/21 07:42:58;;;;;;;7.75;3.90;;;;;;;-144.05;37.48;57071.84;5094937;28;20020;-79
2024/01/21 07:45:24;;;;;;;9.77;4.25;;;;;;;-144.05;37.68;57069.72;5095182;28;20024;-77
2024/01/21 07:47:50;;;;;;;7.80;4.38;;;3.80;90.50;;;-144.05;37.62;57078.22;5095507;28;20047;-78
2024/01/21 07:50:17;;;;;;;8.68;4.22;;;;;;;-144.05;37.63;57052.75;5107429;28;20557;-79
2024/01/21 07:52:43;;;;;;;6.93;3.75;;;;;;;-144.05;37.84;57054.88;5098642;28;20353;-78
2024/01/21 07:55:10;;;;;;;6.47;4.28;;;;;;;-144.05;37.62;57086.72;5095117;28;20481;-77
2024/01/21 07:57:36;;;;;;;8.63;3.92;;;;;;;-144.05;37.67;57088.84;5096866;28;20031;-76
2024/01/21 08:00:03;;;;;;;8.23;4.18;;;;;;;-144.05;38.14;57044.25;5105758;28;20362;-79
2024/01/21 08:02:30;;;;;;;7.93;4.72;;;;;;;-144.05;38.08;57099.47;5096688;28;20046;-79
2024/01/21 08:04:56;;;;;;;7.53;4.07;;;;;;;-144.05;38.29;57080.34;5097757;28;20059;-79
2024/01/21 08:07:22;;;;;;;9.95;4.18;;;;;;;-144.05;38.07;57097.34;5097752;28;20035;-77
2024/01/21 08:09:48;;;;;;;8.30;4.65;;;;;;;-144.05;38.04;57059.09;5104880;28;20038;-80
2024/01/21 08:12:15;;;;;;;8.82;4.18;;;;;;;-144.05;38.19;57056.97;5104966;28;20481;-77
2024/01/21 08:14:41;;;;;;;6.78;3.85;;;;;;;-144.05;38.27;57084.59;5108710;28;20024;-77
2024/01/21 08:17:09;;;;;;;10.38;4.60;;;3.60;91.00;;;-144.05;38.22;57112.22;5104300;28;20039;-81
2024/01/21 08:19:38;;;;;;;8.48;4.65;;;;;;;-144.05;38.24;57084.59;5105953;28;20032;-79
2024/01/21 08:22:06;;;;;;;9.82;4.60;;;;;;;-144.05;38.12;57090.97;5100973;28;20042;-79
2024/01/21 08:24:33;;;;;;;7.78;4.45;;;;;;;-144.05;38.07;57080.34;5098288;28;20031;-77
2024/01/21 08:26:59;;;;;;;10.13;4.78;;;2.70;90.90;;;-144.05;38.04;57061.22;5096878;28;20028;-79
2024/01/21 08:29:27;;;;;;;9.18;4.90;;;;;;;-144.05;38.29;57063.34;5094263;28;20092;-78
2024/01/21 08:31:56;;;;;;;8.60;4.85;;;;;;;-144.05;38.32;57084.59;5103180;28;20043;-80
2024/01/21 08:34:22;;;;;;;9.30;4.22;;;;;;;-144.05;38.39;57078.22;5110557;28;20032;-78
2024/01/21 08:36:48;;;;;;;11.43;5.20;;;;;;;-144.05;38.18;57071.84;5097213;28;20035;-78
2024/01/21 08:39:15;;;;;;;8.95;4.13;;;;;;;-144.05;38.09;57110.09;5103609;28;20059;-78
2024/01/21 08:41:41;;;;;;;9.90;5.28;;;;;;;-144.05;38.48;57078.22;5095063;28;20477;-78
2024/01/21 08:44:07;;;;;;;8.93;4.75;;;3.80;90.60;;;-144.05;37.94;57040.00;5113080;27;20127;-80
2024/01/21 08:46:34;;;;;;;10.35;5.03;;;;;;;-144.05;37.24;57097.34;5095610;28;20485;-79
2024/01/21 08:49:00;;;;;;;7.25;4.15;;;;;;;-144.05;37.65;57073.97;5096044;28;20028;-76
2024/01/21 08:51:26;;;;;;;9.68;4.30;;;;;;;-144.05;37.20;57078.22;5096809;28;20489;-78
2024/01/21 08:53:56;;;;;;;9.18;4.70;;;;;;;-144.05;37.22;57082.47;5097848;28;20100;-79
2024/01/21 08:56:26;;;;;;;11.98;4.65;;;;;;;-144.05;37.34;57054.88;5096406;28;20039;-79
2024/01/21 08:58:53;;;;;;;7.80;4.97;;;3.70;90.60;;;-144.05;37.68;57063.34;5094233;28;20028;-77
2024/01/21 09:01:22;;;;;;;7.82;4.28;;;0.80;88.70;;;-144.05;37.80;57078.22;5095933;28;20039;-77
2024/01/21 09:03:48;;;;;;;6.93;4.30;;;;;;;-144.05;37.47;57056.97;5092640;28;20059;-80
2024/01/21 09:06:15;;;;;;;8.13;4.50;;;;;;;-144.05;37.60;57093.09;5099845;28;20413;-78
2024/01/21 09:08:41;;;;;;;11.85;4.68;;;;;;;-144.05;37.27;57054.88;5096035;28;20107;-77
2024/01/21 09:11:08;;;;;;;10.00;5.30;;;4.20;90.80;;;-144.05;37.73;57084.59;5092923;28;20111;-76
2024/01/21 09:13:34;;;;;;;8.10;4.60;;;;;;;-144.05;37.83;57084.59;5092988;28;20461;-79
2024/01/21 09:16:00;;;;;;;11.32;5.43;;;;;;;-144.05;37.58;57063.34;5105509;28;20065;-78
2024/01/21 09:18:27;;;;;;;7.38;4.38;;;;;;;-144.05;37.76;57076.09;5110837;28;20052;-80
2024/01/21 09:20:53;;;;;;;10.10;5.28;;;;;;;-144.05;37.45;57063.34;5129638;28;20065;-79
2024/01/21 09:23:19;;;;;;;8.73;4.90;;;;;;;-144.05;37.32;57040.00;5107786;28;20466;-77
2024/01/21 09:25:45;;;;;;;10.60;6.35;;;;;;;-144.05;37.31;57086.72;5102468;28;20039;-80
2024/01/21 09:28:11;;;;;;;12.20;5.70;;;;;;;-144.05;37.91;57071.84;5102766;28;20477;-80
2024/01/21 09:30:38;;;;;;;8.77;5.40;;;;;;;-144.05;38.12;57023.00;5094966;28;20036;-80
2024/01/21 09:33:04;;;;;;;7.63;4.95;;;;;;;-144.05;38.51;57069.72;5097535;28;20028;-77
2024/01/21 09:35:30;;;;;;;8.57;5.53;;;;;;;-144.05;38.54;57056.97;5114088;28;20035;-77
2024/01/21 09:37:56;;;;;;;10.05;5.15;;;;;;;-144.05;38.07;57086.72;5102829;28;20028;-77
2024/01/21 09:40:23;;;;;;;9.40;4.95;;;;;;;-144.05;38.65;57044.25;5093858;28;20122;-79
2024/01/21 09:42:50;;;;;;;10.38;5.47;;;;;;;-144.05;38.54;57050.63;5095455;28;20054;-80
2024/01/21 09:45:21;;;;;;;11.13;5.43;;;;;;;-144.05;38.78;57063.34;5092530;28;20024;-77
2024/01/21 09:47:49;;;;;;;13.65;5.43;;;;;;;-144.05;38.84;57088.84;5094137;28;20529;-77
2024/01/21 09:50:20;;;;;;;11.48;5.30;;;3.90;92.00;;;-144.05;38.56;57061.22;5092282;28;20143;-77
2024/01/21 09:52:46;;;;;;;14.43;5.60;;;;;;;-144.05;38.10;57025.13;5093101;28;20028;-79
2024/01/21 09:55:12;;;;;;;9.98;5.18;;;;;;;-144.05;38.15;57031.50;5095979;28;20028;-77
2024/01/21 09:57:39;;;;;;;12.60;5.85;;;4.10;91.60;;;-144.05;37.86;57056.97;5101509;28;20031;-78
2024/01/21 10:00:06;;;;;;;11.55;5.70;;;;;;;-144.05;38.24;57025.13;5095434;28;20030;-77
2024/01/21 10:02:34;;;;;;;11.32;5.72;;;;;;;-144.05;38.37;57069.72;5094955;28;20032;-78
2024/01/21 10:05:00;;;;;;;12.82;5.60;;;;;;;-144.05;38.48;57033.63;5095983;28;20027;-79
2024/01/21 10:07:27;;;;;;;13.27;5.82;;;4.60;92.10;;;-144.05;38.46;57035.75;5102714;28;20071;-81
2024/01/21 10:09:57;;;;;;;11.95;5.90;;;;;;;-144.05;38.44;57014.50;5108915;28;20028;-77
2024/01/21 10:12:24;;;;;;;10.70;5.55;;;;;;;-144.05;39.03;57061.22;5106448;28;20024;-80
2024/01/21 10:14:52;;;;;;;8.95;4.82;;;;;;;-144.05;39.12;57050.63;5099101;28;20169;-78
2024/01/21 10:17:24;;;;;;;9.68;4.88;;;1.20;92.60;;;-144.05;39.98;57067.59;5099672;28;20501;-78
2024/01/21 10:19:53;;;;;;;13.05;6.97;;;;;;;-144.05;40.15;57088.84;5096866;28;20028;-79
2024/01/21 10:22:22;;;;;;;9.85;5.28;;;;;;;-144.05;39.99;57052.75;5094202;28;20492;-78
2024/01/21 10:24:49;;;;;;;10.57;5.80;;;4.30;94.20;;;-144.05;40.29;57008.13;5092605;28;20020;-78
2024/01/21 10:27:16;;;;;;;10.15;5.95;;;;;;;-144.05;40.36;57048.50;5094109;28;20103;-78
2024/01/21 10:29:46;;;;;;;10.90;5.50;;;;;;;-144.05;40.63;57027.25;5102753;28;20487;-78
2024/01/21 10:32:16;;;;;;;11.00;5.47;;;1.60;94.30;;;-144.05;40.83;57035.75;5093350;28;20048;-77
2024/01/21 10:34:50;;;;;;;10.88;5.07;;;1.60;94.80;;;-144.05;41.11;57065.47;5100954;28;20104;-79
2024/01/21 10:37:17;;;;;;;12.15;5.78;;;;;;;-144.05;41.46;57061.22;5106849;28;20426;-78
2024/01/21 10:39:49;;;;;;;11.48;5.35;;;;;;;-144.05;41.08;57014.50;5095695;28;20024;-77
2024/01/21 10:42:16;;;;;;;12.38;5.18;;;;;;;-144.05;41.46;57018.75;5094657;28;20058;-79
2024/01/21 10:44:44;;;;;;;11.90;5.55;;;1.50;95.30;;;-144.05;41.72;57029.38;5094726;28;20430;-79
2024/01/21 10:47:13;;;;;;;10.43;5.78;;;;;;;-144.05;41.79;57031.50;5097991;28;20028;-80
2024/01/21 10:49:40;;;;;;;10.23;5.07;;;5.00;97.50;;;-144.05;42.42;57003.88;5097247;28;20026;-79
2024/01/21 10:52:11;;;;;;;8.43;4.75;;;1.60;97.30;;;-144.05;42.67;57029.38;5097895;28;20036;-80
2024/01/21 10:54:40;;;;;;;10.30;5.45;;;;;;;-144.05;43.20;57031.50;5097617;28;20035;-80
2024/01/21 10:57:06;;;;;;;7.53;4.60;;;;;;;-144.05;43.75;57027.25;5096232;28;20027;-78
2024/01/21 10:59:36;;;;;;;12.40;5.90;;;;;;;-144.05;43.92;56986.91;5106721;28;20031;-79
2024/01/21 11:02:02;;;;;;;9.93;5.38;;;;;;;-144.05;43.93;57010.25;5097302;28;20144;-77
2024/01/21 11:04:29;;;;;;;11.55;5.03;;;;;;;-144.05;44.07;57029.38;5096083;28;20042;-76
2024/01/21 11:06:55;;;;;;;10.93;5.63;;;;;;;-144.05;43.93;57065.47;5095016;28;20024;-78
2024/01/21 11:09:28;;;;;;;10.05;5.30;;;1.40;99.90;;;-144.05;45.06;57031.50;5097243;28;20024;-79